Time;durP1;ratioP1;P1;durP2;ratioP2;P2;SDS_P1;SDS_P2;PMS_P1;PMS_P2;Temp;Humidity;BMP_temperature;BMP_pressure;BME280_temperature;BME280_humidity;BME280_pressure;Samples;Min_cycle;Max_cycle;Signal;HPM_P1;HPM_P2
2021/03/15 00:01:00;;;;;;;4.27;3.23;;;7.40;44.20;;;;;;5052728;28;20183;-69
2021/03/15 00:03:25;;;;;;;3.80;3.60;;;7.50;44.00;;;;;;5070802;28;20175;-68
2021/03/15 00:05:51;;;;;;;4.23;3.83;;;7.40;43.60;;;;;;5070902;28;20495;-68
2021/03/15 00:08:17;;;;;;;3.90;3.60;;;7.20;44.70;;;;;;5070738;28;20195;-71
2021/03/15 00:10:42;;;;;;;4.07;3.77;;;7.30;44.10;;;;;;5070592;28;20749;-68
2021/03/15 00:13:08;;;;;;;3.60;3.40;;;7.20;44.70;;;;;;5054221;28;20196;-69
2021/03/15 00:15:34;;;;;;;4.20;3.90;;;7.30;44.40;;;;;;5050976;28;20580;-69
2021/03/15 00:18:00;;;;;;;3.30;3.10;;;7.40;44.10;;;;;;5050273;28;20210;-69
2021/03/15 00:20:26;;;;;;;4.20;4.00;;;7.50;43.40;;;;;;5050666;28;20418;-69
2021/03/15 00:22:52;;;;;;;3.30;3.20;;;7.20;44.20;;;;;;5050636;28;20530;-69
2021/03/15 00:25:18;;;;;;;3.83;3.57;;;7.30;44.10;;;;;;5050426;28;20501;-69
2021/03/15 00:27:45;;;;;;;5.73;3.57;;;7.20;43.80;;;;;;5050422;28;20168;-70
2021/03/15 00:30:14;;;;;;;3.80;3.60;;;7.30;43.90;;;;;;5050479;28;20462;-70
2021/03/15 00:32:40;;;;;;;6.47;3.70;;;7.10;44.10;;;;;;5048976;28;20433;-69
2021/03/15 00:35:07;;;;;;;4.80;4.33;;;7.20;44.10;;;;;;5049305;28;20402;-68
2021/03/15 00:37:33;;;;;;;4.53;4.23;;;7.30;44.70;;;;;;5050130;28;20410;-69
2021/03/15 00:39:58;;;;;;;3.67;3.40;;;7.30;44.10;;;;;;5050413;28;20414;-69
2021/03/15 00:42:24;;;;;;;3.40;3.20;;;7.40;43.40;;;;;;5050296;28;20784;-70
2021/03/15 00:44:50;;;;;;;3.67;2.80;;;7.40;43.30;;;;;;5050640;28;20175;-70
2021/03/15 00:47:15;;;;;;;4.57;3.40;;;7.10;43.80;;;;;;5050053;28;20213;-71
2021/03/15 00:49:41;;;;;;;3.57;3.20;;;7.10;44.40;;;;;;5050413;28;20191;-69
2021/03/15 00:52:06;;;;;;;3.40;3.20;;;7.10;44.20;;;;;;5050522;28;20608;-70
2021/03/15 00:54:32;;;;;;;3.50;3.20;;;7.20;44.80;;;;;;5050209;28;20728;-71
2021/03/15 00:56:57;;;;;;;3.57;3.30;;;7.20;44.00;;;;;;5050343;28;20164;-66
2021/03/15 00:59:23;;;;;;;4.27;3.97;;;7.10;43.90;;;;;;5053966;28;20217;-69
2021/03/15 01:01:50;;;;;;;3.47;3.27;;;7.10;44.50;;;;;;5054180;28;20609;-70
2021/03/15 01:04:16;;;;;;;3.90;3.40;;;6.90;44.50;;;;;;5054470;28;20250;-70
2021/03/15 01:06:42;;;;;;;4.00;3.70;;;6.80;44.80;;;;;;5054342;28;20425;-69
2021/03/15 01:09:09;;;;;;;3.87;3.57;;;7.00;45.10;;;;;;5053781;28;20485;-69
2021/03/15 01:11:36;;;;;;;3.20;3.00;;;7.10;44.50;;;;;;5054130;28;20425;-69
2021/03/15 01:14:02;;;;;;;3.63;3.43;;;7.20;44.10;;;;;;5054299;28;20416;-69
2021/03/15 01:16:27;;;;;;;3.57;3.37;;;6.90;44.80;;;;;;5054021;28;20401;-69
2021/03/15 01:18:53;;;;;;;4.00;3.73;;;6.90;44.90;;;;;;5053951;28;20176;-69
2021/03/15 01:21:18;;;;;;;3.60;3.40;;;6.80;45.40;;;;;;5054021;28;20194;-69
2021/03/15 01:23:44;;;;;;;3.57;3.37;;;6.60;46.00;;;;;;5053830;28;20215;-69
2021/03/15 01:26:09;;;;;;;3.43;3.13;;;6.60;46.10;;;;;;5053973;28;20167;-69
2021/03/15 01:28:35;;;;;;;3.73;3.43;;;6.50;46.60;;;;;;5053780;28;20175;-71
2021/03/15 01:31:01;;;;;;;3.77;3.47;;;6.80;46.40;;;;;;5053600;28;20178;-69
2021/03/15 01:33:27;;;;;;;4.77;4.37;;;6.60;46.10;;;;;;5052716;28;20179;-68
2021/03/15 01:35:53;;;;;;;5.50;4.63;;;6.70;46.00;;;;;;5053953;28;20171;-70
2021/03/15 01:38:19;;;;;;;5.60;4.20;;;7.00;46.80;;;;;;5053309;28;20507;-70
2021/03/15 01:40:45;;;;;;;5.93;4.10;;;7.20;45.00;;;;;;5053337;28;20413;-67
2021/03/15 01:43:11;;;;;;;5.13;4.10;;;7.30;44.20;;;;;;5060621;28;20440;-70
2021/03/15 01:45:36;;;;;;;3.60;3.30;;;7.40;43.80;;;;;;5053511;28;20254;-69
2021/03/15 01:48:05;;;;;;;4.73;3.80;;;7.40;43.90;;;;;;5072193;28;20433;-70
2021/03/15 01:50:30;;;;;;;3.60;3.30;;;7.40;43.30;;;;;;5073475;28;20206;-70
2021/03/15 01:52:56;;;;;;;4.27;4.00;;;7.30;43.80;;;;;;5073164;28;20429;-71
2021/03/15 01:55:23;;;;;;;4.10;3.90;;;7.30;44.20;;;;;;5073444;28;20168;-69
2021/03/15 01:57:49;;;;;;;3.53;3.30;;;7.30;44.50;;;;;;5073339;28;20164;-70
2021/03/15 02:00:17;;;;;;;3.73;3.43;;;7.40;43.10;;;;;;5070055;28;20988;-69
2021/03/15 02:02:54;;;;;;;4.20;3.90;;;7.30;44.90;;;;;;5053215;28;20465;-70
2021/03/15 02:05:19;;;;;;;4.07;3.87;;;7.20;44.20;;;;;;5053295;28;20506;-69
2021/03/15 02:07:45;;;;;;;5.50;4.10;;;7.20;44.40;;;;;;5052756;28;20988;-68
2021/03/15 02:10:11;;;;;;;3.80;3.50;;;6.80;44.90;;;;;;5052358;28;20249;-69
2021/03/15 02:12:42;;;;;;;4.00;3.60;;;6.80;44.80;;;;;;5052993;28;20203;-70
2021/03/15 02:15:30;;;;;;;5.33;4.83;;;6.80;46.00;;;;;;5052879;28;20410;-70
2021/03/15 02:18:03;;;;;;;5.27;4.73;;;6.60;44.70;;;;;;5052753;28;20406;-70
2021/03/15 02:20:40;;;;;;;4.63;3.47;;;6.50;45.10;;;;;;5052897;28;20406;-70
2021/03/15 02:23:12;;;;;;;3.83;3.50;;;6.40;45.80;;;;;;5052727;28;20979;-70
2021/03/15 02:25:58;;;;;;;4.13;3.40;;;6.50;46.10;;;;;;5052906;28;20405;-70
2021/03/15 02:28:40;;;;;;;5.50;3.90;;;6.50;46.20;;;;;;5052635;28;20452;-68
2021/03/15 02:31:33;;;;;;;3.83;3.53;;;6.20;46.40;;;;;;5052574;28;20441;-69
2021/03/15 02:34:16;;;;;;;4.60;4.17;;;6.20;46.00;;;;;;5052771;28;21015;-70
2021/03/15 02:36:45;;;;;;;4.47;4.13;;;6.20;47.00;;;;;;5052775;28;20398;-69
2021/03/15 02:39:18;;;;;;;3.93;3.63;;;6.10;46.70;;;;;;5052145;28;20440;-68
2021/03/15 02:41:46;;;;;;;3.47;3.20;;;6.00;47.30;;;;;;5052539;28;20930;-67
2021/03/15 02:44:13;;;;;;;3.30;3.00;;;6.10;47.30;;;;;;5052578;28;20406;-69
2021/03/15 02:46:41;;;;;;;4.00;3.70;;;6.20;46.40;;;;;;5052270;28;20418;-69
2021/03/15 02:49:12;;;;;;;7.43;4.73;;;6.40;46.10;;;;;;5052095;28;20453;-69
2021/03/15 02:51:39;;;;;;;5.90;3.30;;;6.40;46.20;;;;;;5052437;28;20484;-71
2021/03/15 02:54:08;;;;;;;4.77;3.97;;;6.20;46.40;;;;;;5052126;28;20413;-69
2021/03/15 02:56:47;;;;;;;8.20;4.20;;;6.40;46.50;;;;;;5052271;28;20628;-70
2021/03/15 02:59:14;;;;;;;4.77;4.37;;;6.50;45.80;;;;;;5052252;28;20876;-69
2021/03/15 03:01:43;;;;;;;6.63;3.53;;;6.40;46.00;;;;;;5051982;28;20849;-70
2021/03/15 03:04:10;;;;;;;4.20;3.80;;;6.30;46.10;;;;;;5052218;28;20453;-69
2021/03/15 03:06:38;;;;;;;6.90;3.60;;;6.50;46.60;;;;;;5052216;28;20449;-69
2021/03/15 03:09:07;;;;;;;4.70;4.23;;;6.60;45.80;;;;;;5050543;28;20900;-69
2021/03/15 03:11:33;;;;;;;6.23;3.87;;;6.50;45.70;;;;;;5052076;28;20881;-69
2021/03/15 03:14:01;;;;;;;5.10;4.20;;;6.30;46.50;;;;;;5052120;28;20448;-69
2021/03/15 03:16:33;;;;;;;5.93;3.50;;;6.30;46.70;;;;;;5051625;28;20406;-70
2021/03/15 03:19:00;;;;;;;5.53;4.40;;;6.30;46.80;;;;;;5051762;28;20916;-70
2021/03/15 03:21:26;;;;;;;4.00;3.60;;;6.30;47.30;;;;;;5050737;28;20435;-70
2021/03/15 03:23:56;;;;;;;4.50;4.10;;;6.50;46.40;;;;;;5051609;28;20421;-70
2021/03/15 03:26:24;;;;;;;3.77;3.57;;;6.30;46.30;;;;;;5051719;28;20418;-69
2021/03/15 03:28:54;;;;;;;5.33;3.70;;;6.40;47.10;;;;;;5051510;28;20497;-69
2021/03/15 03:31:21;;;;;;;7.10;4.30;;;6.30;46.70;;;;;;5065581;28;20437;-68
2021/03/15 03:33:48;;;;;;;5.53;4.00;;;6.30;46.70;;;;;;5071605;28;20451;-68
2021/03/15 03:36:14;;;;;;;4.27;3.50;;;6.40;47.10;;;;;;5071624;28;20475;-69
2021/03/15 03:38:40;;;;;;;6.57;3.87;;;6.40;46.10;;;;;;5070942;28;20429;-68
2021/03/15 03:41:06;;;;;;;5.83;4.00;;;6.50;46.30;;;;;;5070121;28;20789;-69
2021/03/15 03:43:32;;;;;;;4.10;3.80;;;6.70;45.80;;;;;;5071343;28;20168;-69
2021/03/15 03:45:57;;;;;;;3.43;3.23;;;6.80;45.70;;;;;;5071065;28;20423;-70
2021/03/15 03:48:23;;;;;;;7.70;4.23;;;6.80;45.10;;;;;;5071167;28;20187;-69
2021/03/15 03:50:49;;;;;;;3.90;3.27;;;6.70;45.90;;;;;;5071117;28;20203;-69
2021/03/15 03:53:26;;;;;;;3.67;3.37;;;6.80;45.20;;;;;;5070835;28;20175;-70
2021/03/15 03:56:12;;;;;;;4.00;3.13;;;6.80;44.90;;;;;;5071168;28;20175;-68
2021/03/15 03:58:49;;;;;;;4.17;3.83;;;6.50;46.40;;;;;;5070638;28;20466;-69
2021/03/15 04:01:16;;;;;;;3.77;3.47;;;6.60;45.60;;;;;;5070984;28;20425;-69
2021/03/15 04:03:51;;;;;;;4.00;3.70;;;6.60;46.80;;;;;;5071081;28;20468;-70
2021/03/15 04:06:19;;;;;;;4.57;3.67;;;6.70;46.20;;;;;;5070658;28;20478;-69
2021/03/15 04:08:59;;;;;;;3.67;3.33;;;6.60;46.70;;;;;;5070607;28;20451;-70
2021/03/15 04:11:29;;;;;;;3.87;3.63;;;6.60;46.90;;;;;;5070980;28;20431;-70
2021/03/15 04:13:56;;;;;;;3.53;3.23;;;6.60;48.50;;;;;;5070715;28;20469;-69
2021/03/15 04:16:32;;;;;;;3.30;3.10;;;6.70;46.90;;;;;;5070814;28;20439;-70
2021/03/15 04:19:02;;;;;;;3.33;3.13;;;6.60;48.30;;;;;;5070550;28;20507;-69
2021/03/15 04:21:30;;;;;;;3.13;2.83;;;6.50;48.00;;;;;;5070541;28;20431;-70
2021/03/15 04:23:58;;;;;;;4.13;3.33;;;6.60;47.80;;;;;;5070934;28;20412;-70
2021/03/15 04:26:25;;;;;;;3.80;3.50;;;6.70;48.70;;;;;;5071058;28;20966;-70
2021/03/15 04:28:53;;;;;;;3.40;3.20;;;6.30;48.30;;;;;;5070261;28;20418;-70
2021/03/15 04:31:20;;;;;;;3.30;3.10;;;6.30;49.40;;;;;;5070836;28;20430;-69
2021/03/15 04:33:46;;;;;;;3.90;3.53;;;6.10;50.20;;;;;;5070431;28;20413;-70
2021/03/15 04:36:14;;;;;;;3.10;2.90;;;6.30;50.50;;;;;;5070548;28;20406;-71
2021/03/15 04:38:41;;;;;;;3.70;3.40;;;6.40;49.00;;;;;;5070605;28;20486;-71
2021/03/15 04:41:06;;;;;;;3.40;3.20;;;6.50;48.80;;;;;;5070686;28;20439;-69
2021/03/15 04:43:32;;;;;;;3.80;3.50;;;6.40;49.40;;;;;;5070351;28;20424;-69
2021/03/15 04:45:58;;;;;;;3.27;3.13;;;6.20;49.70;;;;;;5070578;28;20550;-69
2021/03/15 04:48:26;;;;;;;3.67;3.47;;;6.10;50.90;;;;;;5070426;28;20172;-69
2021/03/15 04:51:05;;;;;;;3.10;3.00;;;6.00;50.10;;;;;;5070116;28;20206;-69
2021/03/15 04:53:38;;;;;;;3.87;3.67;;;6.10;50.60;;;;;;5070744;28;21063;-70
2021/03/15 04:56:10;;;;;;;4.20;3.90;;;6.20;49.30;;;;;;5070463;28;20420;-70
2021/03/15 04:58:39;;;;;;;5.17;3.50;;;6.30;50.20;;;;;;5069886;28;20808;-68
2021/03/15 05:01:06;;;;;;;3.87;3.57;;;6.00;50.20;;;;;;5070430;28;20444;-69
2021/03/15 05:03:34;;;;;;;4.13;3.80;;;6.00;51.20;;;;;;5069154;28;20500;-69
2021/03/15 05:06:00;;;;;;;4.63;4.23;;;6.20;52.80;;;;;;5070349;28;20436;-70
2021/03/15 05:08:28;;;;;;;3.67;3.47;;;6.40;51.80;;;;;;5070184;28;20822;-70
2021/03/15 05:10:55;;;;;;;4.97;4.63;;;6.30;50.90;;;;;;5070069;28;20206;-70
2021/03/15 05:13:21;;;;;;;4.10;3.67;;;6.50;52.20;;;;;;5070035;28;20410;-70
2021/03/15 05:15:47;;;;;;;3.57;3.27;;;6.40;51.40;;;;;;5070259;28;20430;-70
2021/03/15 05:18:14;;;;;;;4.23;3.83;;;6.50;52.30;;;;;;5070030;28;20416;-69
2021/03/15 05:20:46;;;;;;;4.60;4.23;;;6.50;51.70;;;;;;5067564;28;20922;-70
2021/03/15 05:23:13;;;;;;;4.27;3.73;;;6.60;50.30;;;;;;5057144;28;20933;-68
2021/03/15 05:25:42;;;;;;;4.50;4.20;;;6.50;51.20;;;;;;5057386;28;20455;-69
2021/03/15 05:28:09;;;;;;;5.00;4.47;;;6.20;53.20;;;;;;5054353;28;20427;-68
2021/03/15 05:30:35;;;;;;;3.83;3.53;;;6.20;53.70;;;;;;5058263;28;20466;-68
2021/03/15 05:33:03;;;;;;;5.10;4.73;;;6.20;53.80;;;;;;5053233;28;20525;-69
2021/03/15 05:35:29;;;;;;;3.93;3.70;;;6.20;52.60;;;;;;5062677;28;20453;-67
2021/03/15 05:37:55;;;;;;;4.20;3.80;;;6.20;53.00;;;;;;5061758;28;20431;-68
2021/03/15 05:40:24;;;;;;;4.27;3.87;;;5.90;53.10;;;;;;5070014;28;20413;-67
2021/03/15 05:43:13;;;;;;;5.03;4.37;;;5.70;55.00;;;;;;5069652;28;20443;-70
2021/03/15 05:45:50;;;;;;;4.30;3.90;;;6.10;55.00;;;;;;5072123;28;20418;-66
2021/03/15 05:49:06;;;;;;;4.10;3.70;;;5.90;54.80;;;;;;5063457;28;20939;-69
2021/03/15 05:51:50;;;;;;;4.03;3.83;;;6.20;55.10;;;;;;5053343;28;20440;-66
2021/03/15 05:54:37;;;;;;;4.53;4.23;;;6.40;52.80;;;;;;5055041;28;20445;-68
2021/03/15 05:57:29;;;;;;;6.53;5.10;;;6.10;53.00;;;;;;5070448;28;20405;-68
2021/03/15 06:00:11;;;;;;;3.63;3.30;;;6.20;55.40;;;;;;5068142;28;20411;-68
2021/03/15 06:03:01;;;;;;;3.97;3.67;;;6.20;54.60;;;;;;5053337;28;20422;-67
2021/03/15 06:05:28;;;;;;;7.33;6.63;;;5.90;54.90;;;;;;5053011;28;20405;-68
2021/03/15 06:08:19;;;;;;;3.47;3.27;;;5.80;55.00;;;;;;5052847;28;20391;-68
2021/03/15 06:10:57;;;;;;;4.10;3.80;;;5.80;54.80;;;;;;5052929;28;20458;-69
2021/03/15 06:13:23;;;;;;;3.97;3.70;;;5.60;54.20;;;;;;5057153;28;20496;-68
2021/03/15 06:15:50;;;;;;;3.30;3.10;;;5.70;56.40;;;;;;5053092;28;20407;-67
2021/03/15 06:18:16;;;;;;;4.70;3.70;;;5.70;55.40;;;;;;5061421;28;20422;-69
2021/03/15 06:20:45;;;;;;;4.90;4.60;;;5.70;55.50;;;;;;5061502;28;20422;-69
2021/03/15 06:23:11;;;;;;;4.20;3.80;;;5.60;56.90;;;;;;5052409;28;20760;-69
2021/03/15 06:25:37;;;;;;;4.00;3.70;;;5.60;55.70;;;;;;5052817;28;20406;-69
2021/03/15 06:28:04;;;;;;;4.40;3.83;;;5.50;57.00;;;;;;5058372;28;20413;-69
2021/03/15 06:30:30;;;;;;;4.00;3.80;;;5.60;56.30;;;;;;5072645;28;20936;-69
2021/03/15 06:32:58;;;;;;;4.60;4.30;;;5.20;57.20;;;;;;5072705;28;20429;-68
2021/03/15 06:35:26;;;;;;;5.57;4.10;;;5.30;59.00;;;;;;5072614;28;20903;-70
2021/03/15 06:37:53;;;;;;;8.07;4.73;;;5.70;57.70;;;;;;5072530;28;20934;-69
2021/03/15 06:40:20;;;;;;;5.03;4.53;;;5.80;54.50;;;;;;5072918;28;20410;-72
2021/03/15 06:42:48;;;;;;;9.47;5.10;;;7.10;92.70;;;;;;5072274;28;20442;-73
2021/03/15 06:45:14;;;;;;;7.40;4.47;;;8.10;75.70;;;;;;5072555;28;20451;-74
2021/03/15 06:47:42;;;;;;;4.90;4.43;;;8.50;67.20;;;;;;5072419;28;20419;-74
2021/03/15 06:50:09;;;;;;;4.30;4.10;;;8.40;73.60;;;;;;5072000;28;20487;-73
2021/03/15 06:52:56;;;;;;;4.33;3.97;;;9.00;56.40;;;;;;5072429;28;20432;-73
2021/03/15 06:55:32;;;;;;;3.00;2.90;;;9.20;45.40;;;;;;5070799;28;20986;-69
2021/03/15 06:57:58;;;;;;;3.33;3.20;;;8.10;45.30;;;;;;5070634;28;20417;-68
2021/03/15 07:00:29;;;;;;;3.57;3.37;;;7.60;48.00;;;;;;5072198;28;20416;-68
2021/03/15 07:03:03;;;;;;;3.70;3.50;;;7.40;49.10;;;;;;5070823;28;20522;-68
2021/03/15 07:05:30;;;;;;;3.40;3.20;;;7.00;49.00;;;;;;5071666;28;20416;-69
2021/03/15 07:07:58;;;;;;;3.40;3.20;;;6.80;49.90;;;;;;5071782;28;20808;-69
2021/03/15 07:10:26;;;;;;;2.93;2.73;;;6.60;50.60;;;;;;5071899;28;20457;-69
2021/03/15 07:13:12;;;;;;;2.90;2.80;;;6.50;51.90;;;;;;5071697;28;20452;-69
2021/03/15 07:15:39;;;;;;;3.27;3.07;;;6.70;51.40;;;;;;5072044;28;20405;-68
2021/03/15 07:18:24;;;;;;;3.60;3.30;;;6.70;51.60;;;;;;5071609;28;20409;-68
2021/03/15 07:20:50;;;;;;;3.20;3.10;;;6.70;50.20;;;;;;5071760;28;21079;-69
2021/03/15 07:23:36;;;;;;;3.40;3.20;;;6.50;50.50;;;;;;5070440;28;20789;-68
2021/03/15 07:26:25;;;;;;;3.63;3.30;;;6.60;52.90;;;;;;5070322;28;20412;-70
2021/03/15 07:28:51;;;;;;;3.00;2.80;;;6.60;50.80;;;;;;5071430;28;20751;-70
2021/03/15 07:31:22;;;;;;;3.13;3.00;;;6.80;50.60;;;;;;5070948;28;20998;-70
2021/03/15 07:34:10;;;;;;;3.43;3.20;;;6.70;51.80;;;;;;5055730;28;20547;-70
2021/03/15 07:36:45;;;;;;;2.77;2.50;;;6.70;52.50;;;;;;5050397;28;20426;-70
2021/03/15 07:39:11;;;;;;;2.80;2.70;;;6.60;53.20;;;;;;5060463;28;20892;-69
2021/03/15 07:41:38;;;;;;;2.83;2.73;;;6.60;52.30;;;;;;5069162;28;20441;-69
2021/03/15 07:44:21;;;;;;;4.53;4.33;;;6.30;54.00;;;;;;5071106;28;20401;-71
2021/03/15 07:46:49;;;;;;;2.90;2.80;;;6.00;54.70;;;;;;5070773;28;20406;-69
2021/03/15 07:49:28;;;;;;;4.13;2.90;;;5.90;56.30;;;;;;5070604;28;20449;-70
2021/03/15 07:51:57;;;;;;;2.90;2.80;;;5.80;55.50;;;;;;5069481;28;20441;-69
2021/03/15 07:54:25;;;;;;;2.50;2.30;;;5.90;56.40;;;;;;5070772;28;20418;-70
2021/03/15 07:57:11;;;;;;;3.17;3.00;;;5.90;56.00;;;;;;5070743;28;20418;-69
2021/03/15 07:59:37;;;;;;;2.80;2.70;;;5.90;55.20;;;;;;5070676;28;20930;-72
2021/03/15 08:02:03;;;;;;;4.10;3.80;;;5.80;55.70;;;;;;5063317;28;20485;-71
2021/03/15 08:04:30;;;;;;;2.47;2.37;;;6.00;57.40;;;;;;5053603;28;20188;-72
2021/03/15 08:06:56;;;;;;;4.10;2.70;;;6.00;55.40;;;;;;5056467;28;20502;-70
2021/03/15 08:09:22;;;;;;;2.60;2.50;;;6.00;55.30;;;;;;5070186;28;20970;-71
2021/03/15 08:11:49;;;;;;;3.03;2.90;;;6.10;55.90;;;;;;5070742;28;20417;-70
2021/03/15 08:14:17;;;;;;;2.40;2.30;;;6.10;55.10;;;;;;5070530;28;20164;-70
2021/03/15 08:16:44;;;;;;;3.13;2.70;;;6.40;55.70;;;;;;5070597;28;20406;-70
2021/03/15 08:19:11;;;;;;;2.80;2.70;;;6.60;54.00;;;;;;5064678;28;20870;-70
2021/03/15 08:21:37;;;;;;;2.80;2.67;;;6.70;52.30;;;;;;5059243;28;20438;-70
2021/03/15 08:24:05;;;;;;;2.57;2.47;;;6.70;53.30;;;;;;5053101;28;20911;-70
2021/03/15 08:26:33;;;;;;;2.93;2.70;;;6.80;53.50;;;;;;5069122;28;20442;-71
2021/03/15 08:29:01;;;;;;;3.63;3.03;;;6.70;53.70;;;;;;5070104;28;20470;-71
2021/03/15 08:31:32;;;;;;;2.60;2.50;;;6.70;52.70;;;;;;5070469;28;20506;-70
2021/03/15 08:33:59;;;;;;;2.77;2.67;;;6.80;53.20;;;;;;5068056;28;20435;-68
2021/03/15 08:36:24;;;;;;;2.47;2.37;;;7.00;54.50;;;;;;5050675;28;20496;-69
2021/03/15 08:38:50;;;;;;;2.87;2.67;;;7.10;52.90;;;;;;5050467;28;20461;-70
2021/03/15 08:41:27;;;;;;;2.80;2.70;;;7.10;53.50;;;;;;5050654;28;20199;-71
2021/03/15 08:43:53;;;;;;;3.20;3.00;;;7.00;53.00;;;;;;5065671;28;20201;-69
2021/03/15 08:46:39;;;;;;;2.67;2.57;;;7.00;54.70;;;;;;5070546;28;20404;-71
2021/03/15 08:49:07;;;;;;;2.70;2.50;;;7.20;53.70;;;;;;5069701;28;20828;-70
2021/03/15 08:51:33;;;;;;;2.80;2.60;;;7.20;52.80;;;;;;5070172;28;20437;-70
2021/03/15 08:53:59;;;;;;;2.40;2.30;;;7.20;51.40;;;;;;5070323;28;20982;-69
2021/03/15 08:56:45;;;;;;;2.33;2.23;;;7.00;51.60;;;;;;5070697;28;20312;-69
2021/03/15 08:59:11;;;;;;;3.20;3.00;;;7.10;52.50;;;;;;5070284;28;20412;-68
2021/03/15 09:01:43;;;;;;;2.50;2.40;;;7.20;51.70;;;;;;5070017;28;20444;-69
2021/03/15 09:04:08;;;;;;;2.27;2.20;;;7.30;51.70;;;;;;5070415;28;20415;-69
2021/03/15 09:06:36;;;;;;;2.73;2.63;;;7.40;54.40;;;;;;5070235;28;20773;-71
2021/03/15 09:09:05;;;;;;;2.33;2.23;;;7.50;53.10;;;;;;5070112;28;20172;-68
2021/03/15 09:11:37;;;;;;;2.20;2.00;;;7.60;52.00;;;;;;5070200;28;20451;-71
2021/03/15 09:16:44;;;;;;;2.00;2.00;;;7.40;51.50;;;;;;5070308;28;20412;-70
2021/03/15 09:19:23;;;;;;;2.50;2.40;;;7.50;51.80;;;;;;5071550;28;20414;-70
2021/03/15 09:22:17;;;;;;;2.33;2.13;;;7.40;51.60;;;;;;5073930;28;20436;-69
2021/03/15 09:24:45;;;;;;;2.20;2.10;;;7.60;50.40;;;;;;5074295;28;20440;-71
2021/03/15 09:27:20;;;;;;;2.10;2.10;;;7.50;51.40;;;;;;5073982;28;20420;-71
2021/03/15 09:30:10;;;;;;;2.50;2.30;;;7.50;51.20;;;;;;5074536;28;20516;-70
2021/03/15 09:32:45;;;;;;;2.23;2.13;;;7.60;51.10;;;;;;5072685;28;20459;-69
2021/03/15 09:35:29;;;;;;;2.20;2.10;;;7.60;51.90;;;;;;5065887;28;20436;-71
2021/03/15 09:38:06;;;;;;;2.80;2.70;;;7.60;51.90;;;;;;5055504;28;20524;-71
2021/03/15 09:40:39;;;;;;;2.00;1.90;;;7.70;51.90;;;;;;5052722;28;20498;-69
2021/03/15 09:43:05;;;;;;;2.13;2.03;;;8.00;52.50;;;;;;5053538;28;20787;-70
2021/03/15 09:45:34;;;;;;;2.13;2.03;;;8.00;51.40;;;;;;5053566;28;20402;-69
2021/03/15 09:48:01;;;;;;;2.30;2.20;;;8.00;51.30;;;;;;5053386;28;20410;-71
2021/03/15 09:50:29;;;;;;;2.40;2.30;;;8.10;51.60;;;;;;5053581;28;21029;-71
2021/03/15 09:53:12;;;;;;;2.37;2.20;;;8.00;50.70;;;;;;5053778;28;20429;-70
2021/03/15 09:55:38;;;;;;;2.07;2.03;;;7.80;52.10;;;;;;5053541;28;20792;-72
2021/03/15 09:58:06;;;;;;;2.43;2.30;;;7.70;52.10;;;;;;5051961;28;20423;-68
2021/03/15 10:00:32;;;;;;;2.13;2.03;;;7.90;52.60;;;;;;5053610;28;20530;-68
2021/03/15 10:02:57;;;;;;;2.70;2.60;;;8.10;52.30;;;;;;5053119;28;20426;-70
2021/03/15 10:05:23;;;;;;;2.70;2.60;;;8.20;52.30;;;;;;5053332;28;20440;-70
2021/03/15 10:07:49;;;;;;;3.30;3.03;;;8.40;53.20;;;;;;5052129;28;20242;-71
2021/03/15 10:10:23;;;;;;;2.70;2.60;;;8.30;51.70;;;;;;5053091;28;20203;-70
2021/03/15 10:12:58;;;;;;;2.90;2.70;;;8.40;52.00;;;;;;5064384;28;20820;-70
2021/03/15 10:15:24;;;;;;;2.70;2.50;;;8.30;52.30;;;;;;5073065;28;20405;-70
2021/03/15 10:17:49;;;;;;;2.87;2.77;;;8.40;52.50;;;;;;5073039;28;20412;-70
2021/03/15 10:20:24;;;;;;;3.17;3.07;;;8.10;51.50;;;;;;5073161;28;20175;-69
2021/03/15 10:22:51;;;;;;;3.80;3.27;;;8.20;52.70;;;;;;5073101;28;20190;-69
2021/03/15 10:25:16;;;;;;;3.17;2.97;;;8.10;52.10;;;;;;5073129;28;20501;-70
2021/03/15 10:27:57;;;;;;;2.53;2.43;;;8.10;51.90;;;;;;5073077;28;20489;-70
2021/03/15 10:30:29;;;;;;;2.80;2.70;;;8.10;53.20;;;;;;5073095;28;20199;-71
2021/03/15 10:32:56;;;;;;;2.90;2.70;;;7.90;53.20;;;;;;5073175;28;20425;-71
2021/03/15 10:35:23;;;;;;;3.03;2.83;;;7.90;54.60;;;;;;5073245;28;20417;-69
2021/03/15 10:37:52;;;;;;;3.40;3.10;;;8.10;54.70;;;;;;5072816;28;20418;-69
2021/03/15 10:40:19;;;;;;;2.87;2.77;;;8.00;54.00;;;;;;5072704;28;20421;-71
2021/03/15 10:42:45;;;;;;;2.97;2.87;;;8.00;53.30;;;;;;5072027;28;20459;-69
2021/03/15 10:45:12;;;;;;;2.60;2.50;;;7.80;55.50;;;;;;5073032;28;20416;-68
2021/03/15 10:47:40;;;;;;;4.40;3.27;;;7.90;54.60;;;;;;5072290;28;20423;-69
2021/03/15 10:50:26;;;;;;;3.37;3.17;;;8.00;54.20;;;;;;5072838;28;20994;-70
2021/03/15 10:52:52;;;;;;;3.73;3.10;;;8.10;52.90;;;;;;5072076;28;20912;-71
2021/03/15 10:55:20;;;;;;;2.93;2.70;;;8.00;53.30;;;;;;5071670;28;20413;-70
2021/03/15 10:58:06;;;;;;;3.00;2.90;;;8.00;53.00;;;;;;5072613;28;20402;-70
2021/03/15 11:00:35;;;;;;;2.93;2.73;;;8.20;53.90;;;;;;5072463;28;20412;-69
2021/03/15 11:03:01;;;;;;;3.37;3.20;;;8.20;54.20;;;;;;5072088;28;20434;-69
2021/03/15 11:05:26;;;;;;;3.13;2.97;;;8.40;54.10;;;;;;5072262;28;20409;-71
2021/03/15 11:07:52;;;;;;;2.77;2.67;;;8.50;53.10;;;;;;5072204;28;20935;-69
2021/03/15 11:10:23;;;;;;;3.10;2.90;;;8.50;51.10;;;;;;5072254;28;20199;-69
2021/03/15 11:12:57;;;;;;;2.83;2.73;;;8.50;53.40;;;;;;5072242;28;20977;-68
2021/03/15 11:15:36;;;;;;;3.00;2.90;;;8.60;52.20;;;;;;5070106;28;20424;-68
2021/03/15 11:18:06;;;;;;;2.83;2.73;;;8.70;52.00;;;;;;5070842;28;20433;-69
2021/03/15 11:20:36;;;;;;;2.80;2.60;;;8.70;52.30;;;;;;5051983;28;20468;-67
2021/03/15 11:23:02;;;;;;;2.77;2.67;;;8.70;51.00;;;;;;5066405;28;20452;-68
2021/03/15 11:25:29;;;;;;;2.97;2.87;;;8.60;51.70;;;;;;5071823;28;20986;-68
2021/03/15 11:28:05;;;;;;;3.03;2.87;;;8.40;51.00;;;;;;5071563;28;20501;-69
2021/03/15 11:30:32;;;;;;;3.10;2.83;;;8.50;51.10;;;;;;5070293;28;20506;-69
2021/03/15 11:33:03;;;;;;;3.17;2.80;;;8.50;51.00;;;;;;5071684;28;20478;-69
2021/03/15 11:35:29;;;;;;;3.00;2.80;;;8.60;52.00;;;;;;5071546;28;20402;-68
2021/03/15 11:37:57;;;;;;;3.40;3.20;;;8.70;51.30;;;;;;5071210;28;20425;-68
2021/03/15 11:40:42;;;;;;;3.00;2.90;;;8.70;51.00;;;;;;5071566;28;20405;-67
2021/03/15 11:43:11;;;;;;;3.40;3.10;;;8.90;49.70;;;;;;5070421;28;20448;-66
2021/03/15 11:45:36;;;;;;;3.30;3.10;;;8.80;47.20;;;;;;5071236;28;20518;-67
2021/03/15 11:48:03;;;;;;;3.77;3.47;;;8.70;48.10;;;;;;5071091;28;20484;-66
2021/03/15 11:50:30;;;;;;;3.67;3.37;;;8.60;49.30;;;;;;5071315;28;20329;-66
2021/03/15 11:52:56;;;;;;;3.27;3.07;;;8.70;50.30;;;;;;5070860;28;20426;-66
2021/03/15 11:55:23;;;;;;;2.90;2.73;;;8.80;48.10;;;;;;5069856;28;20414;-65
2021/03/15 11:57:49;;;;;;;2.80;2.70;;;8.80;46.00;;;;;;5071100;28;20416;-66
2021/03/15 12:00:18;;;;;;;2.80;2.70;;;8.90;47.40;;;;;;5071101;28;20401;-66
2021/03/15 12:02:48;;;;;;;3.43;3.17;;;9.00;46.50;;;;;;5070746;28;20939;-65
2021/03/15 12:05:14;;;;;;;3.10;2.90;;;8.80;47.60;;;;;;5070880;28;20409;-66
2021/03/15 12:07:41;;;;;;;3.50;3.20;;;8.90;46.40;;;;;;5069164;28;20437;-65
2021/03/15 12:10:09;;;;;;;2.73;2.63;;;8.80;47.60;;;;;;5055697;28;20953;-66
2021/03/15 12:12:35;;;;;;;2.60;2.40;;;8.90;46.60;;;;;;5050926;28;20445;-66
2021/03/15 12:15:02;;;;;;;3.57;3.37;;;8.80;46.00;;;;;;5070571;28;20425;-67
2021/03/15 12:17:28;;;;;;;3.73;3.53;;;10.00;69.00;;;;;;5070666;28;20750;-68
2021/03/15 12:19:54;;;;;;;4.90;3.03;;;11.50;66.00;;;;;;5070784;28;20433;-68
2021/03/15 12:22:20;;;;;;;3.10;3.00;;;12.00;59.40;;;;;;5069107;28;20874;-66
2021/03/15 12:24:45;;;;;;;3.00;2.87;;;11.70;39.80;;;;;;5061403;28;20506;-70
2021/03/15 12:27:11;;;;;;;2.90;2.77;;;10.30;40.20;;;;;;5051169;28;20251;-73
2021/03/15 12:29:37;;;;;;;3.20;3.10;;;10.10;41.70;;;;;;5050680;28;20206;-70
2021/03/15 12:32:04;;;;;;;3.27;2.80;;;9.90;42.60;;;;;;5050979;28;20188;-70
2021/03/15 12:34:29;;;;;;;2.63;2.53;;;9.80;44.50;;;;;;5051972;28;20464;-71
2021/03/15 12:36:55;;;;;;;14.70;4.83;;;9.60;44.10;;;;;;5070343;28;20406;-71
2021/03/15 12:39:20;;;;;;;3.93;3.63;;;9.40;43.40;;;;;;5070299;28;20654;-72
2021/03/15 12:41:46;;;;;;;3.20;3.00;;;9.20;45.30;;;;;;5070284;28;20251;-71
2021/03/15 12:44:11;;;;;;;3.17;2.97;;;9.10;43.00;;;;;;5070687;28;20254;-69
2021/03/15 12:46:37;;;;;;;4.13;3.10;;;9.20;44.10;;;;;;5070570;28;20566;-71
2021/03/15 12:49:03;;;;;;;3.13;2.93;;;9.30;43.10;;;;;;5070272;28;20205;-69
2021/03/15 12:51:28;;;;;;;2.93;2.73;;;9.30;43.10;;;;;;5070112;28;20214;-69
2021/03/15 12:53:54;;;;;;;3.03;2.93;;;9.40;42.00;;;;;;5072620;28;20246;-67
2021/03/15 12:56:19;;;;;;;3.37;3.10;;;9.40;42.10;;;;;;5075733;28;20262;-73
2021/03/15 12:58:46;;;;;;;3.60;3.37;;;9.50;42.10;;;;;;5076819;28;20163;-70
2021/03/15 13:01:11;;;;;;;5.63;2.90;;;9.60;40.00;;;;;;5076761;28;20183;-70
2021/03/15 13:03:37;;;;;;;4.00;3.23;;;9.50;39.00;;;;;;5077069;28;20401;-70
2021/03/15 13:06:03;;;;;;;2.97;2.77;;;9.60;40.00;;;;;;5076960;28;20216;-70
2021/03/15 13:08:28;;;;;;;5.13;3.20;;;9.60;37.90;;;;;;5076785;28;20630;-68
2021/03/15 13:10:54;;;;;;;3.30;3.00;;;9.50;37.90;;;;;;5076938;28;20265;-71
2021/03/15 13:13:19;;;;;;;3.90;2.60;;;9.70;37.50;;;;;;5076898;28;20167;-72